createdAt,value
2023-01-10T00:02:12.967Z,8.97
2023-01-10T00:04:42.539Z,8.85
2023-01-10T00:07:10.550Z,8.72
2023-01-10T00:09:38.927Z,8.77
2023-01-10T00:12:45.376Z,8.73
2023-01-10T00:15:13.738Z,8.76
2023-01-10T00:17:41.783Z,8.58
2023-01-10T00:20:10.927Z,8.57
2023-01-10T00:22:38.850Z,8.61
2023-01-10T00:25:07.455Z,8.69
2023-01-10T00:27:38.349Z,8.57
2023-01-10T00:30:15.149Z,8.56
2023-01-10T00:32:45.299Z,8.70
2023-01-10T00:35:14.310Z,8.80
2023-01-10T00:37:42.394Z,8.77
2023-01-10T00:40:12.319Z,8.70
2023-01-10T00:42:58.907Z,8.66
2023-01-10T00:45:27.957Z,8.34
2023-01-10T00:47:56.014Z,8.71
2023-01-10T00:50:25.630Z,8.51
2023-01-10T00:52:53.690Z,8.45
2023-01-10T00:55:23.117Z,8.49
2023-01-10T00:57:51.127Z,8.54
2023-01-10T01:00:19.618Z,8.57
2023-01-10T01:02:48.939Z,8.29
2023-01-10T01:05:17.897Z,8.29
2023-01-10T01:07:51.426Z,8.13
2023-01-10T01:10:29.103Z,8.31
2023-01-10T01:13:07.495Z,8.37
2023-01-10T01:15:36.762Z,8.14
2023-01-10T01:18:06.267Z,8.16
2023-01-10T01:20:34.943Z,8.24
2023-01-10T01:23:04.205Z,8.23
2023-01-10T01:25:34.045Z,8.15
2023-01-10T01:28:02.177Z,8.06
2023-01-10T01:30:30.510Z,8.11
2023-01-10T01:32:58.521Z,8.06
2023-01-10T01:35:27.035Z,8.10
2023-01-10T01:37:55.019Z,7.92
2023-01-10T01:40:24.165Z,7.98
2023-01-10T01:42:58.407Z,7.92
2023-01-10T01:45:26.709Z,7.86
2023-01-10T01:48:34.716Z,8.04
2023-01-10T01:51:25.575Z,7.88
2023-01-10T01:54:00.945Z,7.88
2023-01-10T01:57:07.517Z,7.93
2023-01-10T01:59:42.480Z,7.68
2023-01-10T02:02:17.395Z,7.75
2023-01-10T02:05:13.663Z,7.89
2023-01-10T02:07:45.643Z,7.87
2023-01-10T02:10:20.154Z,7.87
2023-01-10T02:12:52.497Z,7.88
2023-01-10T02:15:20.914Z,7.83
2023-01-10T02:17:51.943Z,7.76
2023-01-10T02:20:23.276Z,7.56
2023-01-10T02:23:33.948Z,7.68
2023-01-10T02:26:14.088Z,7.72
2023-01-10T02:28:57.599Z,7.68
2023-01-10T02:31:43.194Z,7.74
2023-01-10T02:34:22.976Z,7.48
2023-01-10T02:36:52.044Z,7.23
2023-01-10T02:39:52.866Z,7.35
2023-01-10T02:42:42.257Z,7.39
2023-01-10T02:45:15.516Z,7.69
2023-01-10T02:47:43.642Z,7.54
2023-01-10T02:50:24.070Z,7.62
2023-01-10T02:52:52.707Z,7.64
2023-01-10T02:55:25.128Z,7.37
2023-01-10T02:57:59.028Z,7.40
2023-01-10T03:00:49.975Z,7.43
2023-01-10T03:03:31.067Z,7.52
2023-01-10T03:06:32.097Z,7.75
2023-01-10T03:09:10.466Z,7.65
2023-01-10T03:11:40.923Z,7.57
2023-01-10T03:14:16.055Z,7.45
2023-01-10T03:16:49.418Z,7.58
2023-01-10T03:19:22.939Z,7.53
2023-01-10T03:21:54.305Z,6.77
2023-01-10T03:24:29.147Z,6.78
2023-01-10T03:27:15.905Z,7.16
2023-01-10T03:30:26.696Z,7.43
2023-01-10T03:32:57.682Z,7.54
2023-01-10T03:35:54.745Z,7.69
2023-01-10T03:38:38.711Z,7.97
2023-01-10T03:41:14.266Z,8.16
2023-01-10T03:44:23.637Z,8.32
2023-01-10T03:47:03.247Z,7.64
2023-01-10T03:49:35.963Z,7.71
2023-01-10T03:52:06.381Z,7.86
2023-01-10T03:54:35.048Z,7.78
2023-01-10T03:57:03.093Z,8.03
2023-01-10T03:59:32.777Z,8.21
2023-01-10T04:02:00.889Z,8.41
2023-01-10T04:04:30.087Z,8.36
2023-01-10T04:06:58.115Z,8.25
2023-01-10T04:09:26.436Z,8.49
2023-01-10T04:11:54.411Z,8.29
2023-01-10T04:14:22.796Z,7.86
2023-01-10T04:16:50.746Z,8.01
2023-01-10T04:19:20.068Z,7.64
2023-01-10T04:21:48.236Z,7.81
2023-01-10T04:24:16.641Z,7.85
2023-01-10T04:26:45.022Z,7.82
2023-01-10T04:29:13.379Z,7.83
2023-01-10T04:31:41.469Z,7.54
2023-01-10T04:34:10.398Z,7.93
2023-01-10T04:36:38.475Z,7.86
2023-01-10T04:39:07.020Z,7.97
2023-01-10T04:41:35.815Z,7.34
2023-01-10T04:44:06.443Z,7.53
2023-01-10T04:46:34.676Z,7.70
2023-01-10T04:49:03.166Z,7.75
2023-01-10T04:51:31.208Z,7.87
2023-01-10T04:54:00.375Z,7.74
2023-01-10T04:56:28.416Z,7.26
2023-01-10T04:58:56.967Z,7.41
2023-01-10T05:01:26.604Z,7.49
2023-01-10T05:03:56.264Z,7.73
2023-01-10T05:06:25.739Z,7.86
2023-01-10T05:08:53.809Z,7.86
2023-01-10T05:11:22.096Z,7.75
2023-01-10T05:13:50.624Z,7.65
2023-01-10T05:16:19.209Z,7.75
2023-01-10T05:18:47.255Z,8.08
2023-01-10T05:21:18.424Z,8.13
2023-01-10T05:23:46.794Z,8.26
2023-01-10T05:26:19.094Z,7.87
2023-01-10T05:28:48.094Z,8.40
2023-01-10T05:31:18.589Z,8.35
2023-01-10T05:33:48.885Z,8.58
2023-01-10T05:36:18.087Z,8.63
2023-01-10T05:38:46.563Z,8.82
2023-01-10T05:41:16.173Z,8.65
2023-01-10T05:43:44.155Z,9.05
2023-01-10T05:46:12.465Z,9.07
2023-01-10T05:48:40.474Z,9.02
2023-01-10T05:51:08.904Z,9.10
2023-01-10T05:53:36.946Z,9.17
2023-01-10T05:56:06.455Z,9.18
2023-01-10T05:58:34.409Z,9.13
2023-01-10T06:01:02.880Z,9.17
2023-01-10T06:03:30.951Z,9.30
2023-01-10T06:05:59.196Z,9.19
2023-01-10T06:08:27.197Z,9.28
2023-01-10T06:10:56.144Z,9.27
2023-01-10T06:13:24.553Z,9.29
2023-01-10T06:15:52.850Z,9.40
2023-01-10T06:18:21.245Z,9.37
2023-01-10T06:20:49.578Z,9.43
2023-01-10T06:23:17.705Z,9.42
2023-01-10T06:25:46.237Z,9.51
2023-01-10T06:28:15.109Z,9.48
2023-01-10T06:30:43.775Z,9.61
2023-01-10T06:33:12.654Z,9.62
2023-01-10T06:35:40.995Z,9.56
2023-01-10T06:38:09.229Z,9.49
2023-01-10T06:40:37.535Z,9.66
2023-01-10T06:43:05.613Z,9.73
2023-01-10T06:45:33.966Z,9.89
2023-01-10T06:48:02.226Z,10.01
2023-01-10T06:50:31.967Z,10.09
2023-01-10T06:53:05.098Z,9.99
2023-01-10T06:55:33.507Z,10.07
2023-01-10T06:58:04.931Z,10.17
2023-01-10T07:00:34.632Z,10.25
2023-01-10T07:03:03.074Z,10.26
2023-01-10T07:05:31.463Z,10.25
2023-01-10T07:16:19.575Z,10.51
2023-01-10T07:18:47.647Z,10.57
2023-01-10T07:21:18.408Z,10.70
2023-01-10T07:23:50.651Z,10.73
2023-01-10T07:26:20.301Z,10.69
2023-01-10T07:28:53.813Z,10.73
2023-01-10T07:31:24.065Z,10.66
2023-01-10T07:33:52.650Z,10.81
2023-01-10T07:36:21.106Z,10.67
2023-01-10T07:38:49.157Z,10.68
2023-01-10T07:41:17.605Z,10.83
2023-01-10T07:43:45.666Z,10.93
2023-01-10T07:46:14.575Z,11.16
2023-01-10T07:48:42.829Z,11.43
2023-01-10T07:51:11.172Z,12.60
2023-01-10T07:53:39.562Z,15.00
2023-01-10T07:56:08.965Z,16.20
2023-01-10T07:58:37.205Z,17.01
2023-01-10T08:01:07.809Z,17.38
2023-01-10T08:03:36.948Z,17.07
2023-01-10T08:06:10.500Z,17.80
2023-01-10T08:08:39.165Z,17.28
2023-01-10T08:11:08.004Z,15.54
2023-01-10T08:13:36.019Z,14.71
2023-01-10T08:16:07.361Z,14.15
2023-01-10T08:18:35.561Z,13.39
2023-01-10T08:21:05.366Z,13.40
2023-01-10T08:23:33.355Z,13.22
2023-01-10T08:26:02.290Z,13.33
2023-01-10T08:28:30.528Z,13.63
2023-01-10T08:31:06.149Z,13.72
2023-01-10T08:33:34.241Z,13.80
2023-01-10T08:36:02.625Z,14.14
2023-01-10T08:38:30.637Z,14.33
2023-01-10T08:40:59.243Z,14.50
2023-01-10T08:43:27.746Z,14.47
2023-01-10T08:45:56.096Z,14.79
2023-01-10T08:48:25.008Z,14.62
2023-01-10T08:50:53.420Z,14.75
2023-01-10T08:53:21.455Z,14.86
2023-01-10T08:55:51.101Z,15.18
2023-01-10T08:58:19.058Z,15.16
2023-01-10T09:00:47.390Z,15.21
2023-01-10T09:03:15.523Z,15.49
2023-01-10T09:05:43.889Z,15.64
2023-01-10T09:08:12.408Z,15.80
2023-01-10T09:10:41.856Z,15.90
2023-01-10T09:13:09.942Z,16.17
2023-01-10T09:15:38.968Z,16.32
2023-01-10T09:18:08.147Z,16.58
2023-01-10T09:20:38.554Z,16.69
2023-01-10T09:23:19.297Z,16.90
2023-01-10T09:25:51.523Z,17.09
2023-01-10T09:28:21.615Z,17.18
2023-01-10T09:30:50.356Z,17.43
2023-01-10T09:33:20.665Z,17.58
2023-01-10T09:35:49.312Z,17.36
2023-01-10T09:38:19.486Z,17.85
2023-01-10T09:41:12.718Z,18.11
2023-01-10T09:44:06.975Z,18.16
2023-01-10T09:53:19.319Z,18.75
2023-01-10T09:55:53.318Z,19.05
2023-01-10T09:58:28.067Z,19.08
2023-01-10T10:01:05.093Z,19.34
2023-01-10T10:03:45.584Z,19.67
2023-01-10T10:06:15.410Z,19.87
2023-01-10T10:08:45.879Z,19.92
2023-01-10T10:11:25.827Z,20.19
2023-01-10T10:14:31.440Z,20.35
2023-01-10T10:17:27.814Z,20.67
2023-01-10T10:20:11.978Z,21.05
2023-01-10T10:23:17.146Z,20.56
2023-01-10T10:26:28.633Z,20.49
2023-01-10T10:29:10.327Z,20.86
2023-01-10T10:31:47.678Z,21.02
2023-01-10T10:34:36.949Z,20.96
2023-01-10T10:37:34.037Z,21.04
2023-01-10T10:40:16.797Z,21.11
2023-01-10T10:42:50.816Z,21.09
2023-01-10T10:45:35.513Z,21.48
2023-01-10T10:48:22.189Z,21.42
2023-01-10T10:50:55.996Z,21.74
2023-01-10T10:53:24.384Z,21.72
2023-01-10T10:55:53.673Z,21.74
2023-01-10T10:58:22.150Z,22.00
2023-01-10T11:00:50.238Z,21.65
2023-01-10T11:04:09.278Z,21.84
2023-01-10T11:06:40.975Z,21.47
2023-01-10T11:09:10.357Z,21.94
2023-01-10T11:11:45.196Z,21.84
2023-01-10T11:14:13.997Z,21.83
2023-01-10T11:16:45.457Z,22.41
2023-01-10T11:19:30.316Z,22.50
2023-01-10T11:22:04.337Z,22.54
2023-01-10T11:25:01.669Z,22.97
2023-01-10T11:27:47.027Z,23.21
2023-01-10T11:30:36.824Z,23.02
2023-01-10T11:33:08.048Z,23.52
2023-01-10T11:35:42.344Z,24.26
2023-01-10T11:38:30.420Z,22.57
2023-01-10T11:41:00.623Z,22.49
2023-01-10T11:43:34.186Z,22.35
2023-01-10T11:46:17.691Z,22.17
2023-01-10T11:49:12.922Z,20.99
2023-01-10T11:51:48.634Z,22.20
2023-01-10T11:54:21.008Z,22.18
2023-01-10T11:56:57.230Z,21.09
2023-01-10T11:59:27.285Z,22.02
2023-01-10T12:02:05.688Z,22.46
2023-01-10T12:04:40.855Z,22.60
2023-01-10T12:07:12.472Z,22.55
2023-01-10T12:09:46.403Z,23.61
2023-01-10T12:12:19.461Z,22.86
2023-01-10T12:14:48.971Z,23.32
2023-01-10T12:17:23.328Z,24.44
2023-01-10T12:19:53.597Z,24.60
2023-01-10T12:22:45.653Z,24.79
2023-01-10T12:25:26.381Z,24.89
2023-01-10T12:27:57.651Z,24.91
2023-01-10T12:30:34.534Z,25.43
2023-01-10T12:33:13.513Z,25.37
2023-01-10T12:36:16.479Z,25.59
2023-01-10T12:42:24.046Z,25.22
2023-01-10T12:45:08.819Z,25.21
2023-01-10T12:47:55.028Z,25.45
2023-01-10T12:50:41.632Z,25.70
2023-01-10T12:53:09.559Z,25.48
2023-01-10T12:55:46.009Z,25.74
2023-01-10T12:58:22.307Z,25.57
2023-01-10T13:00:59.582Z,25.30
2023-01-10T13:03:34.411Z,26.17
2023-01-10T13:06:04.199Z,25.44
2023-01-10T13:08:36.299Z,25.91
2023-01-10T13:11:07.058Z,25.78
2023-01-10T13:13:40.809Z,25.85
2023-01-10T13:16:40.672Z,25.41
2023-01-10T13:19:11.418Z,25.94
2023-01-10T13:21:42.532Z,25.37
2023-01-10T13:24:17.795Z,24.59
2023-01-10T13:26:54.110Z,25.52
2023-01-10T13:29:29.887Z,25.72
2023-01-10T13:32:02.201Z,25.48
2023-01-10T13:34:35.854Z,24.88
2023-01-10T13:37:35.884Z,24.92
2023-01-10T13:40:05.888Z,25.35
2023-01-10T13:42:54.574Z,25.59
2023-01-10T13:45:28.622Z,25.36
2023-01-10T13:47:59.824Z,25.37
2023-01-10T13:50:34.153Z,25.31
2023-01-10T13:53:07.244Z,25.43
2023-01-10T13:58:59.803Z,25.92
2023-01-10T14:01:56.581Z,24.97
2023-01-10T14:04:32.048Z,26.01
2023-01-10T14:07:05.157Z,27.80
2023-01-10T14:09:39.982Z,28.96
2023-01-10T14:12:17.781Z,29.78
2023-01-10T14:15:07.621Z,30.29
2023-01-10T14:17:38.205Z,31.08
2023-01-10T14:20:19.581Z,30.38
2023-01-10T14:23:05.323Z,28.86
2023-01-10T14:25:36.876Z,29.25
2023-01-10T14:28:16.622Z,29.27
2023-01-10T14:30:46.104Z,26.84
2023-01-10T14:33:22.054Z,26.95
2023-01-10T14:35:56.705Z,26.44
2023-01-10T14:38:33.850Z,27.43
2023-01-10T14:41:07.084Z,27.43
2023-01-10T14:43:45.769Z,28.41
2023-01-10T14:46:43.406Z,28.97
2023-01-10T14:49:41.453Z,28.34
2023-01-10T14:52:14.518Z,28.59
2023-01-10T14:54:42.525Z,29.37
2023-01-10T14:57:22.610Z,29.48
2023-01-10T15:00:03.007Z,28.79
2023-01-10T15:02:31.978Z,29.17
2023-01-10T15:05:09.930Z,29.51
2023-01-10T15:07:38.523Z,29.60
2023-01-10T15:10:18.343Z,29.07
2023-01-10T15:12:47.543Z,29.09
2023-01-10T15:15:23.740Z,28.29
2023-01-10T15:17:52.206Z,27.98
2023-01-10T15:20:21.886Z,27.16
2023-01-10T15:23:01.225Z,26.99
2023-01-10T15:25:38.326Z,25.48
2023-01-10T15:28:16.574Z,23.00
2023-01-10T15:30:45.180Z,21.82
2023-01-10T15:33:17.655Z,21.00
2023-01-10T15:35:46.043Z,20.58
2023-01-10T15:38:21.129Z,20.28
2023-01-10T15:41:03.837Z,20.26
2023-01-10T15:43:37.255Z,20.28
2023-01-10T15:46:17.555Z,19.90
2023-01-10T15:48:56.571Z,19.75
2023-01-10T15:51:37.964Z,19.68
2023-01-10T15:54:29.529Z,19.29
2023-01-10T15:57:07.919Z,19.26
2023-01-10T15:59:51.764Z,19.24
2023-01-10T16:02:29.358Z,19.22
2023-01-10T16:05:05.900Z,18.77
2023-01-10T16:07:36.249Z,18.94
2023-01-10T16:10:08.310Z,18.96
2023-01-10T16:13:01.038Z,18.79
2023-01-10T16:15:32.083Z,18.37
2023-01-10T16:18:00.438Z,18.48
2023-01-10T16:20:35.737Z,18.39
2023-01-10T16:23:08.985Z,18.28
2023-01-10T16:25:45.158Z,18.24
2023-01-10T16:28:17.054Z,18.15
2023-01-10T16:30:47.202Z,18.18
2023-01-10T16:33:24.680Z,18.37
2023-01-10T16:35:55.313Z,18.10
2023-01-10T16:38:27.762Z,18.00
2023-01-10T16:41:22.067Z,17.82
2023-01-10T16:43:52.214Z,17.91
2023-01-10T16:46:20.642Z,17.85
2023-01-10T16:48:50.256Z,17.76
2023-01-10T16:51:24.051Z,17.38
2023-01-10T16:53:52.918Z,17.18
2023-01-10T16:56:24.012Z,17.20
2023-01-10T16:58:55.130Z,17.12
2023-01-10T17:01:30.225Z,17.01
2023-01-10T17:03:59.387Z,17.03
2023-01-10T17:06:27.440Z,17.14
2023-01-10T17:08:56.889Z,16.94
2023-01-10T17:11:33.861Z,16.81
2023-01-10T17:14:04.639Z,16.74
2023-01-10T17:16:32.887Z,16.82
2023-01-10T17:19:02.661Z,16.77
2023-01-10T17:21:30.596Z,16.81
2023-01-10T17:23:58.958Z,16.62
2023-01-10T17:26:26.838Z,16.47
2023-01-10T17:28:55.629Z,16.30
2023-01-10T17:31:23.726Z,16.17
2023-01-10T17:33:52.556Z,15.96
2023-01-10T17:36:22.625Z,15.95
2023-01-10T17:38:51.019Z,15.97
2023-01-10T17:41:19.091Z,16.10
2023-01-10T17:43:47.543Z,16.16
2023-01-10T17:46:17.478Z,16.16
2023-01-10T17:48:47.005Z,16.09
2023-01-10T17:51:14.985Z,16.10
2023-01-10T17:53:43.515Z,15.81
2023-01-10T17:56:11.942Z,15.86
2023-01-10T17:58:40.367Z,15.57
2023-01-10T18:01:19.306Z,15.30
2023-01-10T18:03:47.838Z,15.25
2023-01-10T18:06:23.731Z,15.36
2023-01-10T18:08:54.037Z,15.18
2023-01-10T18:11:25.380Z,15.15
2023-01-10T18:13:54.980Z,14.84
2023-01-10T18:16:25.030Z,14.85
2023-01-10T18:18:54.579Z,14.70
2023-01-10T18:21:22.568Z,14.76
2023-01-10T18:23:57.138Z,14.66
2023-01-10T18:26:25.190Z,14.67
2023-01-10T18:28:54.647Z,14.67
2023-01-10T18:31:22.898Z,14.87
2023-01-10T18:33:54.388Z,14.47
2023-01-10T18:36:24.747Z,14.28
2023-01-10T18:38:54.443Z,14.25
2023-01-10T18:41:22.530Z,14.54
2023-01-10T18:43:50.838Z,14.32
2023-01-10T18:46:22.911Z,14.11
2023-01-10T18:48:54.302Z,14.14
2023-01-10T18:51:23.399Z,14.11
2023-01-10T18:53:53.237Z,13.83
2023-01-10T18:56:21.464Z,13.91
2023-01-10T18:58:49.923Z,14.03
2023-01-10T19:01:20.942Z,14.00
2023-01-10T19:03:50.608Z,13.74
2023-01-10T19:06:22.875Z,13.79
2023-01-10T19:08:51.793Z,13.49
2023-01-10T19:11:20.566Z,13.72
2023-01-10T19:13:52.266Z,13.49
2023-01-10T19:16:26.364Z,13.37
2023-01-10T19:19:01.141Z,13.51
2023-01-10T19:21:31.970Z,13.60
2023-01-10T19:24:03.916Z,13.48
2023-01-10T19:26:33.170Z,13.55
2023-01-10T19:29:04.357Z,13.39
2023-01-10T19:31:34.450Z,13.39
2023-01-10T19:34:02.557Z,13.27
2023-01-10T19:36:34.942Z,13.18
2023-01-10T19:39:05.403Z,13.16
2023-01-10T19:41:37.469Z,13.09
2023-01-10T19:44:13.900Z,13.29
2023-01-10T19:46:44.295Z,13.54
2023-01-10T19:49:17.694Z,13.10
2023-01-10T19:51:51.507Z,13.03
2023-01-10T19:54:20.504Z,13.10
2023-01-10T19:56:50.377Z,13.04
2023-01-10T19:59:18.793Z,12.72
2023-01-10T20:01:48.096Z,12.77
2023-01-10T20:04:16.127Z,12.78
2023-01-10T20:06:45.704Z,12.50
2023-01-10T20:09:14.591Z,12.62
2023-01-10T20:11:46.303Z,12.60
2023-01-10T20:14:18.024Z,12.52
2023-01-10T20:16:49.086Z,12.45
2023-01-10T20:19:17.661Z,12.21
2023-01-10T20:21:47.066Z,12.16
2023-01-10T20:24:22.074Z,12.19
2023-01-10T20:26:53.830Z,12.26
2023-01-10T20:29:23.022Z,12.09
2023-01-10T20:31:57.274Z,12.21
2023-01-10T20:34:26.377Z,11.99
2023-01-10T20:36:56.534Z,12.03
2023-01-10T20:39:31.625Z,11.97
2023-01-10T20:42:00.944Z,11.88
2023-01-10T20:44:30.897Z,11.84
2023-01-10T20:47:00.199Z,11.83
2023-01-10T20:49:29.106Z,11.83
2023-01-10T20:51:59.037Z,11.73
2023-01-10T20:54:28.170Z,11.69
2023-01-10T20:56:58.678Z,11.44
2023-01-10T20:59:29.996Z,11.50
2023-01-10T21:01:59.621Z,11.72
2023-01-10T21:04:28.834Z,11.57
2023-01-10T21:06:57.499Z,11.00
2023-01-10T21:09:26.017Z,9.79
2023-01-10T21:12:04.381Z,9.42
2023-01-10T21:14:38.812Z,10.01
2023-01-10T21:17:07.276Z,9.52
2023-01-10T21:19:35.234Z,9.72
2023-01-10T21:22:03.860Z,9.62
2023-01-10T21:24:31.889Z,10.06
2023-01-10T21:27:00.145Z,10.31
2023-01-10T21:29:28.396Z,10.36
2023-01-10T21:31:56.839Z,10.67
2023-01-10T21:34:25.135Z,10.43
2023-01-10T21:36:54.650Z,10.14
2023-01-10T21:39:22.682Z,10.26
2023-01-10T21:42:09.390Z,10.15
2023-01-10T21:44:37.489Z,10.27
2023-01-10T21:47:05.774Z,10.21
2023-01-10T21:49:33.767Z,10.23
2023-01-10T21:52:03.299Z,10.11
2023-01-10T21:54:32.306Z,10.21
2023-01-10T21:57:00.736Z,10.15
2023-01-10T21:59:28.727Z,10.02
2023-01-10T22:01:57.072Z,10.14
2023-01-10T22:04:25.166Z,9.88
2023-01-10T22:06:53.531Z,9.47
2023-01-10T22:09:21.546Z,9.22
2023-01-10T22:11:49.886Z,9.74
2023-01-10T22:14:17.912Z,9.95
2023-01-10T22:16:46.206Z,9.97
2023-01-10T22:19:14.174Z,9.95
2023-01-10T22:21:42.455Z,9.91
2023-01-10T22:24:10.449Z,10.11
2023-01-10T22:26:39.066Z,10.16
2023-01-10T22:29:07.103Z,10.15
2023-01-10T22:31:35.787Z,10.08
2023-01-10T22:34:03.758Z,10.06
2023-01-10T22:36:32.109Z,9.98
2023-01-10T22:39:00.007Z,10.17
2023-01-10T22:41:29.122Z,10.24
2023-01-10T22:43:57.641Z,10.19
2023-01-10T22:46:27.920Z,10.15
2023-01-10T22:48:56.527Z,10.13
2023-01-10T22:51:25.499Z,10.17
2023-01-10T22:53:56.942Z,10.35
2023-01-10T22:56:25.985Z,10.20
2023-01-10T22:58:54.004Z,10.17
2023-01-10T23:01:25.278Z,10.22
2023-01-10T23:03:53.318Z,10.09
2023-01-10T23:06:22.321Z,10.03
2023-01-10T23:08:51.828Z,10.03
2023-01-10T23:11:22.494Z,9.83
2023-01-10T23:13:50.667Z,9.83
2023-01-10T23:16:28.854Z,9.83
2023-01-10T23:18:57.704Z,9.84
2023-01-10T23:21:29.607Z,9.85
2023-01-10T23:23:57.701Z,10.03
2023-01-10T23:26:26.040Z,9.72
2023-01-10T23:28:54.452Z,9.25
2023-01-10T23:31:24.925Z,9.34
2023-01-10T23:33:53.016Z,9.31
2023-01-10T23:36:22.350Z,9.52
2023-01-10T23:38:50.906Z,9.14
2023-01-10T23:41:21.351Z,9.25
2023-01-10T23:43:50.961Z,9.35
2023-01-10T23:46:19.389Z,8.70
2023-01-10T23:48:48.616Z,8.42
2023-01-10T23:51:16.952Z,8.45
2023-01-10T23:53:44.931Z,8.79
2023-01-10T23:56:15.521Z,8.75
2023-01-10T23:58:43.643Z,8.93
